Nathalie — OJLP — position and weather

sailwx.info

Track history (hours):
 
Tides and Currents Weather Stations Pressure Air Temp Water Temp Dewpoint Dewpoint Depression Visibility Wind Speed Wind Dir Waves Ship Positions

Nathalie

Last reported at 2016-May-06 03:32 UTC. Time now 2016-May-06 05:29 UTC.
Position N 54°41' E 020°12'.

Length 64 m; draft 2.2 m.

Type: Cargo ship. MMSI: 230987660.

Date/timePositionNaut miles runAvg speedWind from/ knotsBaromVisibWave heightAir tempDewpointWater temp
2016-May-06 03:32N 54°41' E 020°12'0 0.0
2016-May-06 02:32N 54°41' E 020°12'4 4.1
2016-May-06 01:33N 54°39' E 020°06'9 8.6
2016-May-06 00:33N 54°39' E 019°51'3 2.6
2016-May-05 23:33N 54°38' E 019°47'0 0.0
2016-May-05 22:33N 54°38' E 019°47'0 0.0
2016-May-05 21:34N 54°38' E 019°47'0 0.0
2016-May-05 20:33N 54°38' E 019°47'0 0.0
2016-May-05 19:34N 54°38' E 019°47'5 4.5
2016-May-05 18:33N 54°41' E 019°41'9 8.8
2016-May-05 17:34N 54°43' E 019°26'9 8.9
2016-May-05 16:34N 54°46' E 019°11'9 8.9
2016-May-05 15:34N 54°49' E 018°57'9 8.9
2016-May-05 14:33N 54°51' E 018°42'9 8.8
2016-May-05 13:34N 54°53' E 018°27'9 9.0
2016-May-05 12:33N 54°54' E 018°11'9 8.8
2016-May-05 11:33N 54°55' E 017°56'73 9.0
2016-May-05 03:28N 54°55' E 015°49'10 9.2
2016-May-05 02:24N 54°55' E 015°32'9 8.9
2016-May-05 01:22N 54°55' E 015°16'7 9.1
2016-May-05 00:33N 54°54' E 015°03'9 9.2
2016-May-04 23:33N 54°54' E 014°47'9 8.9
2016-May-04 22:34N 54°54' E 014°32'9 9.0
2016-May-04 21:33N 54°53' E 014°16'10 9.3
2016-May-04 20:31N 54°52' E 013°60'9 9.5
2016-May-04 19:33N 54°49' E 013°45'28 9.4
2016-May-04 16:33N 54°39' E 012°59'9 9.1
2016-May-04 15:33N 54°35' E 012°45'18 9.0
2016-May-04 13:32N 54°29' E 012°15'9 9.3
2016-May-04 12:33N 54°22' E 012°05'9 9.0
2016-May-04 11:33N 54°17' E 011°52'9 8.8
2016-May-04 10:32N 54°11' E 011°40'19 6.3
2016-May-04 07:33N 53°54' E 011°27'0 0.1
2016-May-04 06:32N 53°54' E 011°28'0 0.0
2016-May-04 05:32N 53°54' E 011°28'0 0.0
2016-May-04 04:32N 53°54' E 011°28'0 0.0
2016-May-04 03:32N 53°54' E 011°28'0 0.0
2016-May-04 02:32N 53°54' E 011°28'0 0.0
2016-May-04 01:32N 53°54' E 011°28'0 0.0
2016-May-04 00:32N 53°54' E 011°28'0 0.0
2016-May-03 23:32N 53°54' E 011°28'0 0.0
2016-May-03 22:32N 53°54' E 011°28'0 0.0
2016-May-03 21:32N 53°54' E 011°28'0 0.0
2016-May-03 20:32N 53°54' E 011°28'0 0.0
2016-May-03 19:32N 53°54' E 011°28'0 0.0
2016-May-03 18:29N 53°54' E 011°28'0 0.0
2016-May-03 17:29N 53°54' E 011°28'0 0.0
2016-May-03 16:32N 53°54' E 011°28'0 0.0
2016-May-03 15:32N 53°54' E 011°28'0 0.0
2016-May-03 14:32N 53°54' E 011°28'0 0.0
2016-May-03 13:29N 53°54' E 011°28'0 0.0
2016-May-03 12:32N 53°54' E 011°28'0 0.0
2016-May-03 11:32N 53°54' E 011°28'0 0.0
2016-May-03 10:29N 53°54' E 011°28'0 0.0
2016-May-03 09:32N 53°54' E 011°28'0 0.0
2016-May-03 08:32N 53°54' E 011°28'0 0.0
2016-May-03 07:32N 53°54' E 011°28'0 0.0
2016-May-03 06:32N 53°54' E 011°28'0 0.0
2016-May-03 05:32N 53°54' E 011°28'0 0.0
2016-May-03 04:32N 53°54' E 011°28'0 0.0
2016-May-03 03:32N 53°54' E 011°28'0 0.0
2016-May-03 02:32N 53°54' E 011°28'0 0.0
2016-May-03 01:32N 53°54' E 011°28'0 0.0
2016-May-03 00:32N 53°54' E 011°28'0 0.0
2016-May-02 23:29N 53°54' E 011°28'0 0.0
2016-May-02 22:32N 53°54' E 011°28'0 0.0
2016-May-02 21:32N 53°54' E 011°28'0 0.0
2016-May-02 20:32N 53°54' E 011°28'0 0.0
2016-May-02 19:31N 53°54' E 011°28'0 0.0
2016-May-02 18:31N 53°54' E 011°28'0 0.0
2016-May-02 17:31N 53°54' E 011°28'0 0.0
2016-May-02 16:28N 53°54' E 011°28'0 0.0
2016-May-02 15:31N 53°54' E 011°28'0 0.0
2016-May-02 14:31N 53°54' E 011°28'0 0.0
2016-May-02 13:31N 53°54' E 011°28'0 0.0
2016-May-02 12:31N 53°54' E 011°28'0 0.0
2016-May-02 11:31N 53°54' E 011°28'0 0.0
2016-May-02 10:31N 53°54' E 011°28'0 0.0
2016-May-02 09:31N 53°54' E 011°28'0 0.0
2016-May-02 08:31N 53°54' E 011°28'0 0.0
2016-May-02 07:31N 53°54' E 011°28'0 0.0
2016-May-02 06:31N 53°54' E 011°28'0 0.0
2016-May-02 05:31N 53°54' E 011°28'0 0.0
2016-May-02 04:31N 53°54' E 011°28'0 0.0
2016-May-02 03:31N 53°54' E 011°28'0 0.0
2016-May-02 02:31N 53°54' E 011°28'0 0.0
2016-May-02 01:31N 53°54' E 011°28'0 0.0
2016-May-02 00:31N 53°54' E 011°28'0 0.0
2016-May-01 23:31N 53°54' E 011°28'0 0.0
2016-May-01 22:31N 53°54' E 011°28'0 0.0
2016-May-01 21:31N 53°54' E 011°28'0 0.0
2016-May-01 20:31N 53°54' E 011°28'0 0.0
2016-May-01 19:31N 53°54' E 011°28'0 0.0
2016-May-01 18:31N 53°54' E 011°28'0 0.0
2016-May-01 17:31N 53°54' E 011°28'0 0.0
2016-May-01 16:28N 53°54' E 011°28'0 0.0
2016-May-01 15:31N 53°54' E 011°28'0 0.0
2016-May-01 14:31N 53°54' E 011°28'0 0.0
2016-May-01 13:31N 53°54' E 011°28'0 0.0
2016-May-01 12:31N 53°54' E 011°28'0 0.0
2016-May-01 11:31N 53°54' E 011°28'0 0.0
2016-May-01 10:34N 53°54' E 011°28'0 0.0
2016-May-01 09:34N 53°54' E 011°28'0 0.0
2016-May-01 08:33N 53°54' E 011°28'0 0.0
2016-May-01 07:33N 53°54' E 011°28'0 0.0
2016-May-01 06:33N 53°54' E 011°28'0 0.0
2016-May-01 05:33N 53°54' E 011°28'0 0.0
2016-May-01 04:33N 53°54' E 011°28'0 0.0
2016-May-01 03:33N 53°54' E 011°28'0 0.0
2016-May-01 02:33N 53°54' E 011°28'0 0.0
2016-May-01 01:33N 53°54' E 011°28'0 0.0
2016-May-01 00:33N 53°54' E 011°28'0 0.0
2016-Apr-30 23:33N 53°54' E 011°28'0 0.0
2016-Apr-30 22:33N 53°54' E 011°28'0 0.0
2016-Apr-30 21:33N 53°54' E 011°28'0 0.0
2016-Apr-30 20:33N 53°54' E 011°28'0 0.0
2016-Apr-30 19:33N 53°54' E 011°28'0 0.0
2016-Apr-30 18:33N 53°54' E 011°28'0 0.0
2016-Apr-30 17:33N 53°54' E 011°28'0 0.0
2016-Apr-30 16:33N 53°54' E 011°28'0 0.0
2016-Apr-30 15:33N 53°54' E 011°28'0 0.0
2016-Apr-30 14:33N 53°54' E 011°28'0 0.0
2016-Apr-30 13:33N 53°54' E 011°28'0 0.0
2016-Apr-30 12:24N 53°54' E 011°28'0 0.0
2016-Apr-30 11:33N 53°54' E 011°28'0 0.0
2016-Apr-30 10:33N 53°54' E 011°28'0 0.0
2016-Apr-30 09:30N 53°54' E 011°28'0 0.0
2016-Apr-30 08:33N 53°54' E 011°28'6 6.2
2016-Apr-30 07:33N 53°59' E 011°20'7 7.4
2016-Apr-30 06:33N 54°05' E 011°27'8 8.1
2016-Apr-30 05:33N 54°11' E 011°35'8 8.3
2016-Apr-30 04:33N 54°17' E 011°45'8 8.4
2016-Apr-30 03:33N 54°24' E 011°54'9 9.0
2016-Apr-30 02:33N 54°27' E 012°09'9 8.7
2016-Apr-30 01:33N 54°35' E 012°14'8 8.4
2016-Apr-30 00:33N 54°41' E 012°25'10 9.0
2016-Apr-29 23:29N 54°46' E 012°39'17 8.5
2016-Apr-29 21:28N 54°53' E 013°06'8 8.6
2016-Apr-29 20:33N 54°55' E 013°19'8 8.2
2016-Apr-29 19:33N 54°58' E 013°33'8 8.4
2016-Apr-29 18:33N 55°01' E 013°46'8 8.4
2016-Apr-29 17:33N 55°05' E 013°60'8 8.0
2016-Apr-29 16:33N 55°10' E 014°11'8 8.4
2016-Apr-29 15:33N 55°16' E 014°20'9 9.1
2016-Apr-29 14:33N 55°23' E 014°30'8 8.1
2016-Apr-29 13:33N 55°29' E 014°40'8 8.1
2016-Apr-29 12:33N 55°35' E 014°50'9 7.9
2016-Apr-29 11:22N 55°41' E 015°03'109 7.8
2016-Apr-28 21:28N 57°11' E 016°50'201 8.4
2016-Apr-27 21:28N 59°38' E 021°12'7 8.1
2016-Apr-27 20:33N 59°44' E 021°20'8 7.9
2016-Apr-27 19:33N 59°51' E 021°25'  
Track history (hours):
 
Tides and Currents Weather Stations Pressure Air Temp Water Temp Dewpoint Dewpoint Depression Visibility Wind Speed Wind Dir Waves Ship Positions

Nathalie

Last reported at 2016-May-06 03:32 UTC. Time now 2016-May-06 05:29 UTC.
Position N 54°41' E 020°12'.

Length 64 m; draft 2.2 m.

Type: Cargo ship. MMSI: 230987660.

Date/timePositionNaut miles runAvg speedWind from/ knotsBaromVisibWave heightAir tempDewpointWater temp
2016-May-06 03:32N 54°41' E 020°12'0 0.0
2016-May-06 02:32N 54°41' E 020°12'4 4.1
2016-May-06 01:33N 54°39' E 020°06'9 8.6
2016-May-06 00:33N 54°39' E 019°51'3 2.6
2016-May-05 23:33N 54°38' E 019°47'0 0.0
2016-May-05 22:33N 54°38' E 019°47'0 0.0
2016-May-05 21:34N 54°38' E 019°47'0 0.0
2016-May-05 20:33N 54°38' E 019°47'0 0.0
2016-May-05 19:34N 54°38' E 019°47'5 4.5
2016-May-05 18:33N 54°41' E 019°41'9 8.8
2016-May-05 17:34N 54°43' E 019°26'9 8.9
2016-May-05 16:34N 54°46' E 019°11'9 8.9
2016-May-05 15:34N 54°49' E 018°57'9 8.9
2016-May-05 14:33N 54°51' E 018°42'9 8.8
2016-May-05 13:34N 54°53' E 018°27'9 9.0
2016-May-05 12:33N 54°54' E 018°11'9 8.8
2016-May-05 11:33N 54°55' E 017°56'73 9.0
2016-May-05 03:28N 54°55' E 015°49'10 9.2
2016-May-05 02:24N 54°55' E 015°32'9 8.9
2016-May-05 01:22N 54°55' E 015°16'7 9.1
2016-May-05 00:33N 54°54' E 015°03'9 9.2
2016-May-04 23:33N 54°54' E 014°47'9 8.9
2016-May-04 22:34N 54°54' E 014°32'9 9.0
2016-May-04 21:33N 54°53' E 014°16'10 9.3
2016-May-04 20:31N 54°52' E 013°60'9 9.5
2016-May-04 19:33N 54°49' E 013°45'28 9.4
2016-May-04 16:33N 54°39' E 012°59'9 9.1
2016-May-04 15:33N 54°35' E 012°45'18 9.0
2016-May-04 13:32N 54°29' E 012°15'9 9.3
2016-May-04 12:33N 54°22' E 012°05'9 9.0
2016-May-04 11:33N 54°17' E 011°52'9 8.8
2016-May-04 10:32N 54°11' E 011°40'19 6.3
2016-May-04 07:33N 53°54' E 011°27'0 0.1
2016-May-04 06:32N 53°54' E 011°28'0 0.0
2016-May-04 05:32N 53°54' E 011°28'0 0.0
2016-May-04 04:32N 53°54' E 011°28'0 0.0
2016-May-04 03:32N 53°54' E 011°28'0 0.0
2016-May-04 02:32N 53°54' E 011°28'0 0.0
2016-May-04 01:32N 53°54' E 011°28'0 0.0
2016-May-04 00:32N 53°54' E 011°28'0 0.0
2016-May-03 23:32N 53°54' E 011°28'0 0.0
2016-May-03 22:32N 53°54' E 011°28'0 0.0
2016-May-03 21:32N 53°54' E 011°28'0 0.0
2016-May-03 20:32N 53°54' E 011°28'0 0.0
2016-May-03 19:32N 53°54' E 011°28'0 0.0
2016-May-03 18:29N 53°54' E 011°28'0 0.0
2016-May-03 17:29N 53°54' E 011°28'0 0.0
2016-May-03 16:32N 53°54' E 011°28'0 0.0
2016-May-03 15:32N 53°54' E 011°28'0 0.0
2016-May-03 14:32N 53°54' E 011°28'0 0.0
2016-May-03 13:29N 53°54' E 011°28'0 0.0
2016-May-03 12:32N 53°54' E 011°28'0 0.0
2016-May-03 11:32N 53°54' E 011°28'0 0.0
2016-May-03 10:29N 53°54' E 011°28'0 0.0
2016-May-03 09:32N 53°54' E 011°28'0 0.0
2016-May-03 08:32N 53°54' E 011°28'0 0.0
2016-May-03 07:32N 53°54' E 011°28'0 0.0
2016-May-03 06:32N 53°54' E 011°28'0 0.0
2016-May-03 05:32N 53°54' E 011°28'0 0.0
2016-May-03 04:32N 53°54' E 011°28'0 0.0
2016-May-03 03:32N 53°54' E 011°28'0 0.0
2016-May-03 02:32N 53°54' E 011°28'0 0.0
2016-May-03 01:32N 53°54' E 011°28'0 0.0
2016-May-03 00:32N 53°54' E 011°28'0 0.0
2016-May-02 23:29N 53°54' E 011°28'0 0.0
2016-May-02 22:32N 53°54' E 011°28'0 0.0
2016-May-02 21:32N 53°54' E 011°28'0 0.0
2016-May-02 20:32N 53°54' E 011°28'0 0.0
2016-May-02 19:31N 53°54' E 011°28'0 0.0
2016-May-02 18:31N 53°54' E 011°28'0 0.0
2016-May-02 17:31N 53°54' E 011°28'0 0.0
2016-May-02 16:28N 53°54' E 011°28'0 0.0
2016-May-02 15:31N 53°54' E 011°28'0 0.0
2016-May-02 14:31N 53°54' E 011°28'0 0.0
2016-May-02 13:31N 53°54' E 011°28'0 0.0
2016-May-02 12:31N 53°54' E 011°28'0 0.0
2016-May-02 11:31N 53°54' E 011°28'0 0.0
2016-May-02 10:31N 53°54' E 011°28'0 0.0
2016-May-02 09:31N 53°54' E 011°28'0 0.0
2016-May-02 08:31N 53°54' E 011°28'0 0.0
2016-May-02 07:31N 53°54' E 011°28'0 0.0
2016-May-02 06:31N 53°54' E 011°28'0 0.0
2016-May-02 05:31N 53°54' E 011°28'0 0.0
2016-May-02 04:31N 53°54' E 011°28'0 0.0
2016-May-02 03:31N 53°54' E 011°28'0 0.0
2016-May-02 02:31N 53°54' E 011°28'0 0.0
2016-May-02 01:31N 53°54' E 011°28'0 0.0
2016-May-02 00:31N 53°54' E 011°28'0 0.0
2016-May-01 23:31N 53°54' E 011°28'0 0.0
2016-May-01 22:31N 53°54' E 011°28'0 0.0
2016-May-01 21:31N 53°54' E 011°28'0 0.0
2016-May-01 20:31N 53°54' E 011°28'0 0.0
2016-May-01 19:31N 53°54' E 011°28'0 0.0
2016-May-01 18:31N 53°54' E 011°28'0 0.0
2016-May-01 17:31N 53°54' E 011°28'0 0.0
2016-May-01 16:28N 53°54' E 011°28'0 0.0
2016-May-01 15:31N 53°54' E 011°28'0 0.0
2016-May-01 14:31N 53°54' E 011°28'0 0.0
2016-May-01 13:31N 53°54' E 011°28'0 0.0
2016-May-01 12:31N 53°54' E 011°28'0 0.0
2016-May-01 11:31N 53°54' E 011°28'0 0.0
2016-May-01 10:34N 53°54' E 011°28'0 0.0
2016-May-01 09:34N 53°54' E 011°28'0 0.0
2016-May-01 08:33N 53°54' E 011°28'0 0.0
2016-May-01 07:33N 53°54' E 011°28'0 0.0
2016-May-01 06:33N 53°54' E 011°28'0 0.0
2016-May-01 05:33N 53°54' E 011°28'0 0.0
2016-May-01 04:33N 53°54' E 011°28'0 0.0
2016-May-01 03:33N 53°54' E 011°28'0 0.0
2016-May-01 02:33N 53°54' E 011°28'0 0.0
2016-May-01 01:33N 53°54' E 011°28'0 0.0
2016-May-01 00:33N 53°54' E 011°28'0 0.0
2016-Apr-30 23:33N 53°54' E 011°28'0 0.0
2016-Apr-30 22:33N 53°54' E 011°28'0 0.0
2016-Apr-30 21:33N 53°54' E 011°28'0 0.0
2016-Apr-30 20:33N 53°54' E 011°28'0 0.0
2016-Apr-30 19:33N 53°54' E 011°28'0 0.0
2016-Apr-30 18:33N 53°54' E 011°28'0 0.0
2016-Apr-30 17:33N 53°54' E 011°28'0 0.0
2016-Apr-30 16:33N 53°54' E 011°28'0 0.0
2016-Apr-30 15:33N 53°54' E 011°28'0 0.0
2016-Apr-30 14:33N 53°54' E 011°28'0 0.0
2016-Apr-30 13:33N 53°54' E 011°28'0 0.0
2016-Apr-30 12:24N 53°54' E 011°28'0 0.0
2016-Apr-30 11:33N 53°54' E 011°28'0 0.0
2016-Apr-30 10:33N 53°54' E 011°28'0 0.0
2016-Apr-30 09:30N 53°54' E 011°28'0 0.0
2016-Apr-30 08:33N 53°54' E 011°28'6 6.2
2016-Apr-30 07:33N 53°59' E 011°20'7 7.4
2016-Apr-30 06:33N 54°05' E 011°27'8 8.1
2016-Apr-30 05:33N 54°11' E 011°35'8 8.3
2016-Apr-30 04:33N 54°17' E 011°45'8 8.4
2016-Apr-30 03:33N 54°24' E 011°54'9 9.0
2016-Apr-30 02:33N 54°27' E 012°09'9 8.7
2016-Apr-30 01:33N 54°35' E 012°14'8 8.4
2016-Apr-30 00:33N 54°41' E 012°25'10 9.0
2016-Apr-29 23:29N 54°46' E 012°39'17 8.5
2016-Apr-29 21:28N 54°53' E 013°06'8 8.6
2016-Apr-29 20:33N 54°55' E 013°19'8 8.2
2016-Apr-29 19:33N 54°58' E 013°33'8 8.4
2016-Apr-29 18:33N 55°01' E 013°46'8 8.4
2016-Apr-29 17:33N 55°05' E 013°60'8 8.0
2016-Apr-29 16:33N 55°10' E 014°11'8 8.4
2016-Apr-29 15:33N 55°16' E 014°20'9 9.1
2016-Apr-29 14:33N 55°23' E 014°30'8 8.1
2016-Apr-29 13:33N 55°29' E 014°40'8 8.1
2016-Apr-29 12:33N 55°35' E 014°50'9 7.9
2016-Apr-29 11:22N 55°41' E 015°03'109 7.8
2016-Apr-28 21:28N 57°11' E 016°50'201 8.4
2016-Apr-27 21:28N 59°38' E 021°12'7 8.1
2016-Apr-27 20:33N 59°44' E 021°20'8 7.9
2016-Apr-27 19:33N 59°51' E 021°25'  

Dump ship's entire track history